sensor_id;sensor_type;location;lat;lon;timestamp;P1;durP1;ratioP1;P2;durP2;ratioP2
79375;SDS011;68846;53.150;18.136;2023-04-24T00:01:06;7.50;;;6.70;;
79375;SDS011;68846;53.150;18.136;2023-04-24T00:03:33;7.30;;;5.50;;
79375;SDS011;68846;53.150;18.136;2023-04-24T00:05:59;7.70;;;5.70;;
79375;SDS011;68846;53.150;18.136;2023-04-24T00:08:26;7.40;;;5.40;;
79375;SDS011;68846;53.150;18.136;2023-04-24T00:10:52;7.10;;;5.00;;
79375;SDS011;68846;53.150;18.136;2023-04-24T00:13:18;8.80;;;6.50;;
79375;SDS011;68846;53.150;18.136;2023-04-24T00:15:45;9.50;;;5.90;;
79375;SDS011;68846;53.150;18.136;2023-04-24T00:18:11;9.30;;;6.80;;
79375;SDS011;68846;53.150;18.136;2023-04-24T00:20:37;10.10;;;7.00;;
79375;SDS011;68846;53.150;18.136;2023-04-24T00:23:03;7.80;;;5.60;;
79375;SDS011;68846;53.150;18.136;2023-04-24T00:25:29;6.70;;;5.90;;
79375;SDS011;68846;53.150;18.136;2023-04-24T00:27:55;5.90;;;5.10;;
79375;SDS011;68846;53.150;18.136;2023-04-24T00:30:21;12.20;;;6.90;;
79375;SDS011;68846;53.150;18.136;2023-04-24T00:32:48;8.80;;;5.90;;
79375;SDS011;68846;53.150;18.136;2023-04-24T00:35:14;9.60;;;6.20;;
79375;SDS011;68846;53.150;18.136;2023-04-24T00:37:42;11.90;;;6.50;;
79375;SDS011;68846;53.150;18.136;2023-04-24T00:40:09;8.40;;;6.20;;
79375;SDS011;68846;53.150;18.136;2023-04-24T00:45:04;8.40;;;7.30;;
79375;SDS011;68846;53.150;18.136;2023-04-24T00:47:32;9.80;;;7.10;;
79375;SDS011;68846;53.150;18.136;2023-04-24T00:50:00;6.50;;;5.90;;
79375;SDS011;68846;53.150;18.136;2023-04-24T00:52:31;8.50;;;6.00;;
79375;SDS011;68846;53.150;18.136;2023-04-24T00:54:58;9.30;;;6.20;;
79375;SDS011;68846;53.150;18.136;2023-04-24T00:57:24;7.70;;;6.40;;
79375;SDS011;68846;53.150;18.136;2023-04-24T00:59:51;8.30;;;6.40;;
79375;SDS011;68846;53.150;18.136;2023-04-24T01:02:19;7.50;;;6.50;;
79375;SDS011;68846;53.150;18.136;2023-04-24T01:04:47;8.90;;;7.20;;
79375;SDS011;68846;53.150;18.136;2023-04-24T01:09:40;12.20;;;8.10;;
79375;SDS011;68846;53.150;18.136;2023-04-24T01:12:10;9.10;;;6.90;;
79375;SDS011;68846;53.150;18.136;2023-04-24T01:14:37;9.40;;;6.80;;
79375;SDS011;68846;53.150;18.136;2023-04-24T01:17:04;9.10;;;6.70;;
79375;SDS011;68846;53.150;18.136;2023-04-24T01:19:30;9.30;;;7.40;;
79375;SDS011;68846;53.150;18.136;2023-04-24T01:21:58;10.50;;;8.40;;
79375;SDS011;68846;53.150;18.136;2023-04-24T01:24:25;10.50;;;8.50;;
79375;SDS011;68846;53.150;18.136;2023-04-24T01:26:51;12.00;;;9.00;;
79375;SDS011;68846;53.150;18.136;2023-04-24T01:29:18;11.80;;;8.80;;
79375;SDS011;68846;53.150;18.136;2023-04-24T01:31:45;13.00;;;9.60;;
79375;SDS011;68846;53.150;18.136;2023-04-24T01:36:38;10.70;;;6.90;;
79375;SDS011;68846;53.150;18.136;2023-04-24T01:39:05;12.30;;;8.30;;
79375;SDS011;68846;53.150;18.136;2023-04-24T01:41:32;11.30;;;7.90;;
79375;SDS011;68846;53.150;18.136;2023-04-24T01:44:00;11.30;;;7.50;;
79375;SDS011;68846;53.150;18.136;2023-04-24T01:46:27;11.30;;;8.30;;
79375;SDS011;68846;53.150;18.136;2023-04-24T01:48:53;13.60;;;9.00;;
79375;SDS011;68846;53.150;18.136;2023-04-24T01:53:46;12.90;;;9.50;;
79375;SDS011;68846;53.150;18.136;2023-04-24T01:56:13;14.60;;;8.70;;
79375;SDS011;68846;53.150;18.136;2023-04-24T01:58:40;12.10;;;8.70;;
79375;SDS011;68846;53.150;18.136;2023-04-24T02:03:32;14.80;;;9.40;;
79375;SDS011;68846;53.150;18.136;2023-04-24T02:05:58;14.00;;;10.20;;
79375;SDS011;68846;53.150;18.136;2023-04-24T02:08:25;15.10;;;9.70;;
79375;SDS011;68846;53.150;18.136;2023-04-24T02:10:51;16.80;;;11.00;;
79375;SDS011;68846;53.150;18.136;2023-04-24T02:13:18;15.50;;;11.30;;
79375;SDS011;68846;53.150;18.136;2023-04-24T02:15:44;18.60;;;11.90;;
79375;SDS011;68846;53.150;18.136;2023-04-24T02:18:11;20.10;;;12.10;;
79375;SDS011;68846;53.150;18.136;2023-04-24T02:20:38;18.40;;;11.40;;
79375;SDS011;68846;53.150;18.136;2023-04-24T02:23:04;13.60;;;9.90;;
79375;SDS011;68846;53.150;18.136;2023-04-24T02:25:30;17.60;;;10.20;;
79375;SDS011;68846;53.150;18.136;2023-04-24T02:27:56;15.10;;;9.90;;
79375;SDS011;68846;53.150;18.136;2023-04-24T02:30:22;17.10;;;11.80;;
79375;SDS011;68846;53.150;18.136;2023-04-24T02:32:48;17.60;;;12.30;;
79375;SDS011;68846;53.150;18.136;2023-04-24T02:35:15;18.50;;;12.00;;
79375;SDS011;68846;53.150;18.136;2023-04-24T02:37:41;18.40;;;12.00;;
79375;SDS011;68846;53.150;18.136;2023-04-24T02:40:11;18.30;;;12.40;;
79375;SDS011;68846;53.150;18.136;2023-04-24T02:42:37;16.60;;;10.90;;
79375;SDS011;68846;53.150;18.136;2023-04-24T02:45:04;21.80;;;12.20;;
79375;SDS011;68846;53.150;18.136;2023-04-24T02:47:31;18.30;;;11.00;;
79375;SDS011;68846;53.150;18.136;2023-04-24T02:49:59;18.30;;;11.20;;
79375;SDS011;68846;53.150;18.136;2023-04-24T02:52:25;15.40;;;11.00;;
79375;SDS011;68846;53.150;18.136;2023-04-24T02:54:51;20.60;;;12.00;;
79375;SDS011;68846;53.150;18.136;2023-04-24T02:57:17;21.20;;;13.00;;
79375;SDS011;68846;53.150;18.136;2023-04-24T02:59:43;19.00;;;13.00;;
79375;SDS011;68846;53.150;18.136;2023-04-24T03:02:09;18.60;;;12.00;;
79375;SDS011;68846;53.150;18.136;2023-04-24T03:04:35;19.40;;;11.10;;
79375;SDS011;68846;53.150;18.136;2023-04-24T03:07:02;16.10;;;10.90;;
79375;SDS011;68846;53.150;18.136;2023-04-24T03:09:28;15.40;;;10.30;;
79375;SDS011;68846;53.150;18.136;2023-04-24T03:11:54;18.80;;;12.90;;
79375;SDS011;68846;53.150;18.136;2023-04-24T03:14:21;19.50;;;12.00;;
79375;SDS011;68846;53.150;18.136;2023-04-24T03:16:48;20.30;;;12.90;;
79375;SDS011;68846;53.150;18.136;2023-04-24T03:19:16;21.80;;;13.90;;
79375;SDS011;68846;53.150;18.136;2023-04-24T03:21:52;20.30;;;12.50;;
79375;SDS011;68846;53.150;18.136;2023-04-24T03:24:18;17.50;;;12.20;;
79375;SDS011;68846;53.150;18.136;2023-04-24T03:26:44;18.40;;;10.80;;
79375;SDS011;68846;53.150;18.136;2023-04-24T03:29:19;16.80;;;10.80;;
79375;SDS011;68846;53.150;18.136;2023-04-24T03:31:45;17.20;;;11.30;;
79375;SDS011;68846;53.150;18.136;2023-04-24T03:34:11;19.00;;;12.40;;
79375;SDS011;68846;53.150;18.136;2023-04-24T03:36:38;18.50;;;12.90;;
79375;SDS011;68846;53.150;18.136;2023-04-24T03:39:05;20.30;;;12.50;;
79375;SDS011;68846;53.150;18.136;2023-04-24T03:41:33;22.60;;;13.40;;
79375;SDS011;68846;53.150;18.136;2023-04-24T03:44:22;20.00;;;13.10;;
79375;SDS011;68846;53.150;18.136;2023-04-24T03:46:49;20.10;;;12.20;;
79375;SDS011;68846;53.150;18.136;2023-04-24T03:49:16;16.60;;;11.20;;
79375;SDS011;68846;53.150;18.136;2023-04-24T03:51:43;19.10;;;11.50;;
79375;SDS011;68846;53.150;18.136;2023-04-24T03:54:15;15.60;;;10.70;;
79375;SDS011;68846;53.150;18.136;2023-04-24T03:56:41;20.00;;;12.30;;
79375;SDS011;68846;53.150;18.136;2023-04-24T03:59:08;20.50;;;12.20;;
79375;SDS011;68846;53.150;18.136;2023-04-24T04:01:35;16.80;;;12.20;;
79375;SDS011;68846;53.150;18.136;2023-04-24T04:04:10;17.20;;;12.70;;
79375;SDS011;68846;53.150;18.136;2023-04-24T04:06:36;18.00;;;11.80;;
79375;SDS011;68846;53.150;18.136;2023-04-24T04:09:03;15.00;;;10.90;;
79375;SDS011;68846;53.150;18.136;2023-04-24T04:11:29;18.20;;;10.40;;
79375;SDS011;68846;53.150;18.136;2023-04-24T04:13:56;16.00;;;10.30;;
79375;SDS011;68846;53.150;18.136;2023-04-24T04:16:22;15.60;;;10.90;;
79375;SDS011;68846;53.150;18.136;2023-04-24T04:18:51;19.10;;;12.30;;
79375;SDS011;68846;53.150;18.136;2023-04-24T04:21:18;15.60;;;11.50;;
79375;SDS011;68846;53.150;18.136;2023-04-24T04:23:44;18.00;;;12.30;;
79375;SDS011;68846;53.150;18.136;2023-04-24T04:26:17;16.20;;;12.40;;
79375;SDS011;68846;53.150;18.136;2023-04-24T04:29:05;16.80;;;11.50;;
79375;SDS011;68846;53.150;18.136;2023-04-24T04:31:33;17.90;;;11.90;;
79375;SDS011;68846;53.150;18.136;2023-04-24T04:34:01;16.50;;;11.80;;
79375;SDS011;68846;53.150;18.136;2023-04-24T04:38:59;15.00;;;10.90;;
79375;SDS011;68846;53.150;18.136;2023-04-24T04:41:45;15.50;;;11.00;;
79375;SDS011;68846;53.150;18.136;2023-04-24T04:44:15;18.30;;;12.10;;
79375;SDS011;68846;53.150;18.136;2023-04-24T04:46:42;19.40;;;13.50;;
79375;SDS011;68846;53.150;18.136;2023-04-24T04:49:38;22.10;;;15.20;;
79375;SDS011;68846;53.150;18.136;2023-04-24T04:52:07;20.10;;;13.70;;
79375;SDS011;68846;53.150;18.136;2023-04-24T04:54:34;18.90;;;13.90;;
79375;SDS011;68846;53.150;18.136;2023-04-24T04:57:00;22.30;;;13.60;;
79375;SDS011;68846;53.150;18.136;2023-04-24T04:59:27;19.10;;;13.40;;
79375;SDS011;68846;53.150;18.136;2023-04-24T05:01:59;18.30;;;13.30;;
79375;SDS011;68846;53.150;18.136;2023-04-24T05:04:25;17.40;;;13.10;;
79375;SDS011;68846;53.150;18.136;2023-04-24T05:06:52;23.20;;;14.80;;
79375;SDS011;68846;53.150;18.136;2023-04-24T05:09:19;18.50;;;13.80;;
79375;SDS011;68846;53.150;18.136;2023-04-24T05:11:54;23.30;;;16.00;;
79375;SDS011;68846;53.150;18.136;2023-04-24T05:14:22;20.40;;;15.70;;
79375;SDS011;68846;53.150;18.136;2023-04-24T05:16:48;20.80;;;13.10;;
79375;SDS011;68846;53.150;18.136;2023-04-24T05:19:15;15.50;;;12.10;;
79375;SDS011;68846;53.150;18.136;2023-04-24T05:21:42;18.30;;;13.20;;
79375;SDS011;68846;53.150;18.136;2023-04-24T05:24:09;16.50;;;11.60;;
79375;SDS011;68846;53.150;18.136;2023-04-24T05:26:44;16.00;;;11.70;;
79375;SDS011;68846;53.150;18.136;2023-04-24T05:29:12;18.70;;;12.20;;
79375;SDS011;68846;53.150;18.136;2023-04-24T05:31:38;19.40;;;13.60;;
79375;SDS011;68846;53.150;18.136;2023-04-24T05:34:04;18.30;;;12.70;;
79375;SDS011;68846;53.150;18.136;2023-04-24T05:36:31;18.30;;;12.90;;
79375;SDS011;68846;53.150;18.136;2023-04-24T05:38:57;18.80;;;12.60;;
79375;SDS011;68846;53.150;18.136;2023-04-24T05:41:23;18.00;;;11.80;;
79375;SDS011;68846;53.150;18.136;2023-04-24T05:43:50;15.70;;;11.20;;
79375;SDS011;68846;53.150;18.136;2023-04-24T05:46:16;13.50;;;9.90;;
79375;SDS011;68846;53.150;18.136;2023-04-24T05:48:42;17.80;;;12.30;;
79375;SDS011;68846;53.150;18.136;2023-04-24T05:51:10;17.30;;;11.60;;
79375;SDS011;68846;53.150;18.136;2023-04-24T05:53:37;19.10;;;12.70;;
79375;SDS011;68846;53.150;18.136;2023-04-24T05:56:04;18.20;;;13.00;;
79375;SDS011;68846;53.150;18.136;2023-04-24T05:58:30;17.90;;;12.40;;
79375;SDS011;68846;53.150;18.136;2023-04-24T06:00:56;15.80;;;11.00;;
79375;SDS011;68846;53.150;18.136;2023-04-24T06:03:24;14.30;;;10.50;;
79375;SDS011;68846;53.150;18.136;2023-04-24T06:05:50;16.80;;;10.60;;
79375;SDS011;68846;53.150;18.136;2023-04-24T06:08:17;20.40;;;11.20;;
79375;SDS011;68846;53.150;18.136;2023-04-24T06:10:43;21.00;;;13.50;;
79375;SDS011;68846;53.150;18.136;2023-04-24T06:15:38;17.70;;;12.40;;
79375;SDS011;68846;53.150;18.136;2023-04-24T06:18:10;24.70;;;14.20;;
79375;SDS011;68846;53.150;18.136;2023-04-24T06:20:37;20.60;;;13.00;;
79375;SDS011;68846;53.150;18.136;2023-04-24T06:23:03;23.90;;;12.40;;
79375;SDS011;68846;53.150;18.136;2023-04-24T06:25:29;19.60;;;11.60;;
79375;SDS011;68846;53.150;18.136;2023-04-24T06:27:57;18.40;;;11.80;;
79375;SDS011;68846;53.150;18.136;2023-04-24T06:30:23;24.80;;;12.80;;
79375;SDS011;68846;53.150;18.136;2023-04-24T06:32:50;18.90;;;12.40;;
79375;SDS011;68846;53.150;18.136;2023-04-24T06:35:16;18.00;;;11.80;;
79375;SDS011;68846;53.150;18.136;2023-04-24T06:37:42;19.90;;;12.30;;
79375;SDS011;68846;53.150;18.136;2023-04-24T06:40:09;17.70;;;11.60;;
79375;SDS011;68846;53.150;18.136;2023-04-24T06:42:36;18.80;;;10.60;;
79375;SDS011;68846;53.150;18.136;2023-04-24T06:45:03;14.80;;;10.00;;
79375;SDS011;68846;53.150;18.136;2023-04-24T06:47:31;16.00;;;11.40;;
79375;SDS011;68846;53.150;18.136;2023-04-24T06:49:58;17.30;;;12.40;;
79375;SDS011;68846;53.150;18.136;2023-04-24T06:52:24;18.70;;;11.80;;
79375;SDS011;68846;53.150;18.136;2023-04-24T06:54:50;20.50;;;12.70;;
79375;SDS011;68846;53.150;18.136;2023-04-24T06:57:17;14.50;;;11.20;;
79375;SDS011;68846;53.150;18.136;2023-04-24T06:59:44;15.10;;;9.40;;
79375;SDS011;68846;53.150;18.136;2023-04-24T07:02:11;14.60;;;10.00;;
79375;SDS011;68846;53.150;18.136;2023-04-24T07:04:37;10.70;;;9.00;;
79375;SDS011;68846;53.150;18.136;2023-04-24T07:07:03;16.00;;;9.90;;
79375;SDS011;68846;53.150;18.136;2023-04-24T07:09:30;14.30;;;10.30;;
79375;SDS011;68846;53.150;18.136;2023-04-24T07:11:56;14.60;;;10.10;;
79375;SDS011;68846;53.150;18.136;2023-04-24T07:14:23;16.20;;;11.40;;
79375;SDS011;68846;53.150;18.136;2023-04-24T07:16:49;15.20;;;10.10;;
79375;SDS011;68846;53.150;18.136;2023-04-24T07:19:15;17.00;;;11.20;;
79375;SDS011;68846;53.150;18.136;2023-04-24T07:21:41;13.80;;;10.20;;
79375;SDS011;68846;53.150;18.136;2023-04-24T07:24:07;14.10;;;9.90;;
79375;SDS011;68846;53.150;18.136;2023-04-24T07:26:38;18.30;;;10.10;;
79375;SDS011;68846;53.150;18.136;2023-04-24T07:29:06;10.60;;;7.90;;
79375;SDS011;68846;53.150;18.136;2023-04-24T07:31:33;11.60;;;7.30;;
79375;SDS011;68846;53.150;18.136;2023-04-24T07:33:59;11.00;;;7.60;;
79375;SDS011;68846;53.150;18.136;2023-04-24T07:36:26;11.60;;;8.00;;
79375;SDS011;68846;53.150;18.136;2023-04-24T07:38:53;13.00;;;8.70;;
79375;SDS011;68846;53.150;18.136;2023-04-24T07:43:47;11.50;;;7.10;;
79375;SDS011;68846;53.150;18.136;2023-04-24T07:46:13;10.30;;;8.10;;
79375;SDS011;68846;53.150;18.136;2023-04-24T07:48:39;11.50;;;8.40;;
79375;SDS011;68846;53.150;18.136;2023-04-24T07:51:05;10.10;;;7.00;;
79375;SDS011;68846;53.150;18.136;2023-04-24T07:53:31;14.30;;;8.60;;
79375;SDS011;68846;53.150;18.136;2023-04-24T07:55:58;12.80;;;8.60;;
79375;SDS011;68846;53.150;18.136;2023-04-24T07:58:24;13.10;;;8.20;;
79375;SDS011;68846;53.150;18.136;2023-04-24T08:00:50;10.60;;;7.80;;
79375;SDS011;68846;53.150;18.136;2023-04-24T08:03:17;12.40;;;7.70;;
79375;SDS011;68846;53.150;18.136;2023-04-24T08:05:45;8.30;;;6.50;;
79375;SDS011;68846;53.150;18.136;2023-04-24T08:08:11;12.60;;;6.70;;
79375;SDS011;68846;53.150;18.136;2023-04-24T08:10:38;12.50;;;7.10;;
79375;SDS011;68846;53.150;18.136;2023-04-24T08:13:04;9.70;;;7.00;;
79375;SDS011;68846;53.150;18.136;2023-04-24T08:15:30;13.00;;;7.10;;
79375;SDS011;68846;53.150;18.136;2023-04-24T08:17:57;9.90;;;7.00;;
79375;SDS011;68846;53.150;18.136;2023-04-24T08:20:23;8.60;;;6.60;;
79375;SDS011;68846;53.150;18.136;2023-04-24T08:22:49;11.00;;;7.10;;
79375;SDS011;68846;53.150;18.136;2023-04-24T08:25:16;7.90;;;6.20;;
79375;SDS011;68846;53.150;18.136;2023-04-24T08:27:44;8.20;;;5.80;;
79375;SDS011;68846;53.150;18.136;2023-04-24T08:30:10;9.00;;;5.70;;
79375;SDS011;68846;53.150;18.136;2023-04-24T08:32:37;8.20;;;6.00;;
79375;SDS011;68846;53.150;18.136;2023-04-24T08:35:04;8.20;;;5.70;;
79375;SDS011;68846;53.150;18.136;2023-04-24T08:37:30;10.30;;;5.70;;
79375;SDS011;68846;53.150;18.136;2023-04-24T08:39:57;10.00;;;5.40;;
79375;SDS011;68846;53.150;18.136;2023-04-24T08:42:23;9.20;;;6.00;;
79375;SDS011;68846;53.150;18.136;2023-04-24T08:44:49;8.50;;;6.00;;
79375;SDS011;68846;53.150;18.136;2023-04-24T08:47:16;8.30;;;5.30;;
79375;SDS011;68846;53.150;18.136;2023-04-24T08:49:42;7.60;;;5.60;;
79375;SDS011;68846;53.150;18.136;2023-04-24T08:52:09;9.50;;;6.00;;
79375;SDS011;68846;53.150;18.136;2023-04-24T08:54:35;7.60;;;5.90;;
79375;SDS011;68846;53.150;18.136;2023-04-24T08:57:02;7.50;;;5.60;;
79375;SDS011;68846;53.150;18.136;2023-04-24T08:59:29;9.80;;;5.90;;
79375;SDS011;68846;53.150;18.136;2023-04-24T09:01:57;6.90;;;4.90;;
79375;SDS011;68846;53.150;18.136;2023-04-24T09:04:24;7.90;;;5.40;;
79375;SDS011;68846;53.150;18.136;2023-04-24T09:06:53;7.20;;;5.20;;
79375;SDS011;68846;53.150;18.136;2023-04-24T09:09:22;7.60;;;5.00;;
79375;SDS011;68846;53.150;18.136;2023-04-24T09:11:50;9.20;;;5.60;;
79375;SDS011;68846;53.150;18.136;2023-04-24T09:14:19;7.20;;;5.20;;
79375;SDS011;68846;53.150;18.136;2023-04-24T09:16:46;6.50;;;5.00;;
79375;SDS011;68846;53.150;18.136;2023-04-24T09:19:13;8.10;;;5.70;;
79375;SDS011;68846;53.150;18.136;2023-04-24T09:21:39;10.30;;;6.80;;
79375;SDS011;68846;53.150;18.136;2023-04-24T09:24:08;8.70;;;6.90;;
79375;SDS011;68846;53.150;18.136;2023-04-24T09:26:44;11.10;;;6.50;;
79375;SDS011;68846;53.150;18.136;2023-04-24T09:29:17;8.10;;;6.20;;
79375;SDS011;68846;53.150;18.136;2023-04-24T09:31:44;9.00;;;6.10;;
79375;SDS011;68846;53.150;18.136;2023-04-24T09:36:39;8.80;;;6.50;;
79375;SDS011;68846;53.150;18.136;2023-04-24T09:39:08;9.60;;;6.70;;
79375;SDS011;68846;53.150;18.136;2023-04-24T09:41:46;7.30;;;5.90;;
79375;SDS011;68846;53.150;18.136;2023-04-24T09:44:21;9.30;;;5.80;;
79375;SDS011;68846;53.150;18.136;2023-04-24T09:46:55;9.40;;;5.80;;
79375;SDS011;68846;53.150;18.136;2023-04-24T09:49:23;8.50;;;6.50;;
79375;SDS011;68846;53.150;18.136;2023-04-24T09:52:04;8.10;;;6.20;;
79375;SDS011;68846;53.150;18.136;2023-04-24T09:54:31;9.80;;;6.20;;
79375;SDS011;68846;53.150;18.136;2023-04-24T09:56:58;7.80;;;6.30;;
79375;SDS011;68846;53.150;18.136;2023-04-24T09:59:26;14.20;;;6.20;;
79375;SDS011;68846;53.150;18.136;2023-04-24T10:01:52;12.70;;;6.60;;
79375;SDS011;68846;53.150;18.136;2023-04-24T10:04:25;10.20;;;6.40;;
79375;SDS011;68846;53.150;18.136;2023-04-24T10:06:54;8.90;;;6.00;;
79375;SDS011;68846;53.150;18.136;2023-04-24T10:09:23;8.20;;;6.10;;
79375;SDS011;68846;53.150;18.136;2023-04-24T10:11:52;8.60;;;5.60;;
79375;SDS011;68846;53.150;18.136;2023-04-24T10:14:20;8.80;;;5.80;;
79375;SDS011;68846;53.150;18.136;2023-04-24T10:16:48;9.20;;;6.00;;
79375;SDS011;68846;53.150;18.136;2023-04-24T10:19:16;8.40;;;5.80;;
79375;SDS011;68846;53.150;18.136;2023-04-24T10:21:44;6.50;;;5.70;;
79375;SDS011;68846;53.150;18.136;2023-04-24T10:24:17;7.70;;;6.20;;
79375;SDS011;68846;53.150;18.136;2023-04-24T10:26:46;8.90;;;6.00;;
79375;SDS011;68846;53.150;18.136;2023-04-24T10:29:17;7.30;;;5.80;;
79375;SDS011;68846;53.150;18.136;2023-04-24T10:31:44;7.10;;;6.00;;
79375;SDS011;68846;53.150;18.136;2023-04-24T10:34:11;7.50;;;5.10;;
79375;SDS011;68846;53.150;18.136;2023-04-24T10:36:41;7.80;;;5.50;;
79375;SDS011;68846;53.150;18.136;2023-04-24T10:39:12;7.30;;;5.50;;
79375;SDS011;68846;53.150;18.136;2023-04-24T10:41:41;7.00;;;5.60;;
79375;SDS011;68846;53.150;18.136;2023-04-24T10:44:08;6.00;;;5.30;;
79375;SDS011;68846;53.150;18.136;2023-04-24T10:46:39;7.70;;;5.40;;
79375;SDS011;68846;53.150;18.136;2023-04-24T10:49:09;7.00;;;5.30;;
79375;SDS011;68846;53.150;18.136;2023-04-24T10:51:45;8.20;;;5.80;;
79375;SDS011;68846;53.150;18.136;2023-04-24T10:54:28;10.80;;;6.30;;
79375;SDS011;68846;53.150;18.136;2023-04-24T10:59:51;9.20;;;6.40;;
79375;SDS011;68846;53.150;18.136;2023-04-24T11:02:35;8.20;;;6.00;;
79375;SDS011;68846;53.150;18.136;2023-04-24T11:05:03;8.50;;;6.70;;
79375;SDS011;68846;53.150;18.136;2023-04-24T11:07:38;9.00;;;7.20;;
79375;SDS011;68846;53.150;18.136;2023-04-24T11:11:18;8.10;;;6.50;;
79375;SDS011;68846;53.150;18.136;2023-04-24T11:16:29;8.50;;;6.80;;
79375;SDS011;68846;53.150;18.136;2023-04-24T11:19:03;11.20;;;7.40;;
79375;SDS011;68846;53.150;18.136;2023-04-24T11:21:46;11.10;;;7.80;;
79375;SDS011;68846;53.150;18.136;2023-04-24T11:24:38;10.40;;;8.20;;
79375;SDS011;68846;53.150;18.136;2023-04-24T11:27:20;9.30;;;8.20;;
79375;SDS011;68846;53.150;18.136;2023-04-24T11:29:48;9.40;;;8.20;;
79375;SDS011;68846;53.150;18.136;2023-04-24T11:32:24;10.00;;;7.40;;
79375;SDS011;68846;53.150;18.136;2023-04-24T11:34:56;10.00;;;7.70;;
79375;SDS011;68846;53.150;18.136;2023-04-24T11:37:28;9.10;;;6.90;;
79375;SDS011;68846;53.150;18.136;2023-04-24T11:40:04;10.10;;;7.90;;
79375;SDS011;68846;53.150;18.136;2023-04-24T11:42:33;10.30;;;8.30;;
79375;SDS011;68846;53.150;18.136;2023-04-24T11:45:01;11.30;;;8.20;;
79375;SDS011;68846;53.150;18.136;2023-04-24T11:47:32;11.30;;;9.00;;
79375;SDS011;68846;53.150;18.136;2023-04-24T11:50:02;8.90;;;7.60;;
79375;SDS011;68846;53.150;18.136;2023-04-24T11:52:29;12.20;;;8.20;;
79375;SDS011;68846;53.150;18.136;2023-04-24T11:54:56;9.30;;;7.20;;
79375;SDS011;68846;53.150;18.136;2023-04-24T11:57:23;10.00;;;8.20;;
79375;SDS011;68846;53.150;18.136;2023-04-24T11:59:53;10.00;;;7.70;;
79375;SDS011;68846;53.150;18.136;2023-04-24T12:02:23;12.00;;;7.20;;
79375;SDS011;68846;53.150;18.136;2023-04-24T12:04:50;9.30;;;7.50;;
79375;SDS011;68846;53.150;18.136;2023-04-24T12:07:17;9.30;;;7.40;;
79375;SDS011;68846;53.150;18.136;2023-04-24T12:09:47;11.50;;;7.50;;
79375;SDS011;68846;53.150;18.136;2023-04-24T12:12:15;8.60;;;6.80;;
79375;SDS011;68846;53.150;18.136;2023-04-24T12:14:44;11.00;;;7.50;;
79375;SDS011;68846;53.150;18.136;2023-04-24T12:17:31;10.60;;;7.30;;
79375;SDS011;68846;53.150;18.136;2023-04-24T12:20:03;8.20;;;6.70;;
79375;SDS011;68846;53.150;18.136;2023-04-24T12:22:43;12.00;;;6.80;;
79375;SDS011;68846;53.150;18.136;2023-04-24T12:25:14;8.00;;;6.40;;
79375;SDS011;68846;53.150;18.136;2023-04-24T12:27:41;8.40;;;6.90;;
79375;SDS011;68846;53.150;18.136;2023-04-24T12:30:13;12.60;;;7.70;;
79375;SDS011;68846;53.150;18.136;2023-04-24T12:32:41;8.60;;;7.00;;
79375;SDS011;68846;53.150;18.136;2023-04-24T12:35:12;7.90;;;6.00;;
79375;SDS011;68846;53.150;18.136;2023-04-24T12:37:41;6.90;;;5.80;;
79375;SDS011;68846;53.150;18.136;2023-04-24T12:40:09;5.60;;;4.70;;
79375;SDS011;68846;53.150;18.136;2023-04-24T12:42:47;6.70;;;4.60;;
79375;SDS011;68846;53.150;18.136;2023-04-24T12:45:17;9.80;;;4.60;;
79375;SDS011;68846;53.150;18.136;2023-04-24T12:47:45;5.90;;;4.00;;
79375;SDS011;68846;53.150;18.136;2023-04-24T12:50:12;6.10;;;4.00;;
79375;SDS011;68846;53.150;18.136;2023-04-24T12:52:40;5.30;;;3.70;;
79375;SDS011;68846;53.150;18.136;2023-04-24T12:55:06;5.50;;;3.50;;
79375;SDS011;68846;53.150;18.136;2023-04-24T12:57:34;4.70;;;3.50;;
79375;SDS011;68846;53.150;18.136;2023-04-24T13:00:01;6.00;;;3.30;;
79375;SDS011;68846;53.150;18.136;2023-04-24T13:02:29;3.90;;;3.40;;
79375;SDS011;68846;53.150;18.136;2023-04-24T13:04:57;3.40;;;3.10;;
79375;SDS011;68846;53.150;18.136;2023-04-24T13:07:25;4.10;;;3.20;;
79375;SDS011;68846;53.150;18.136;2023-04-24T13:09:52;3.70;;;3.10;;
79375;SDS011;68846;53.150;18.136;2023-04-24T13:12:21;8.30;;;3.50;;
79375;SDS011;68846;53.150;18.136;2023-04-24T13:14:49;9.30;;;4.10;;
79375;SDS011;68846;53.150;18.136;2023-04-24T13:17:16;5.60;;;3.90;;
79375;SDS011;68846;53.150;18.136;2023-04-24T13:19:44;9.00;;;3.50;;
79375;SDS011;68846;53.150;18.136;2023-04-24T13:22:13;4.60;;;3.40;;
79375;SDS011;68846;53.150;18.136;2023-04-24T13:24:40;3.70;;;3.40;;
79375;SDS011;68846;53.150;18.136;2023-04-24T13:27:08;4.10;;;3.50;;
79375;SDS011;68846;53.150;18.136;2023-04-24T13:29:36;13.80;;;4.00;;
79375;SDS011;68846;53.150;18.136;2023-04-24T13:32:03;4.30;;;3.00;;
79375;SDS011;68846;53.150;18.136;2023-04-24T13:34:31;6.20;;;3.60;;
79375;SDS011;68846;53.150;18.136;2023-04-24T13:36:58;8.00;;;3.60;;
79375;SDS011;68846;53.150;18.136;2023-04-24T13:39:24;5.30;;;4.50;;
79375;SDS011;68846;53.150;18.136;2023-04-24T13:41:51;5.30;;;4.00;;
79375;SDS011;68846;53.150;18.136;2023-04-24T13:44:19;7.60;;;4.90;;
79375;SDS011;68846;53.150;18.136;2023-04-24T13:46:47;6.30;;;5.50;;
79375;SDS011;68846;53.150;18.136;2023-04-24T13:49:15;7.70;;;5.70;;
79375;SDS011;68846;53.150;18.136;2023-04-24T13:51:42;7.30;;;5.70;;
79375;SDS011;68846;53.150;18.136;2023-04-24T13:54:08;6.40;;;5.10;;
79375;SDS011;68846;53.150;18.136;2023-04-24T13:56:35;6.30;;;4.70;;
79375;SDS011;68846;53.150;18.136;2023-04-24T13:59:01;9.40;;;5.20;;
79375;SDS011;68846;53.150;18.136;2023-04-24T14:01:27;7.40;;;5.00;;
79375;SDS011;68846;53.150;18.136;2023-04-24T14:03:54;6.30;;;5.40;;
79375;SDS011;68846;53.150;18.136;2023-04-24T14:06:21;7.70;;;6.00;;
79375;SDS011;68846;53.150;18.136;2023-04-24T14:08:48;8.30;;;6.20;;
79375;SDS011;68846;53.150;18.136;2023-04-24T14:11:19;6.60;;;5.90;;
79375;SDS011;68846;53.150;18.136;2023-04-24T14:13:45;8.10;;;6.10;;
79375;SDS011;68846;53.150;18.136;2023-04-24T14:16:12;8.00;;;6.00;;
79375;SDS011;68846;53.150;18.136;2023-04-24T14:18:38;7.50;;;6.10;;
79375;SDS011;68846;53.150;18.136;2023-04-24T14:21:05;8.80;;;6.20;;
79375;SDS011;68846;53.150;18.136;2023-04-24T14:23:32;7.70;;;5.00;;
79375;SDS011;68846;53.150;18.136;2023-04-24T14:25:58;6.30;;;4.70;;
79375;SDS011;68846;53.150;18.136;2023-04-24T14:30:52;6.30;;;4.00;;
79375;SDS011;68846;53.150;18.136;2023-04-24T14:33:18;6.20;;;4.00;;
79375;SDS011;68846;53.150;18.136;2023-04-24T14:35:44;5.10;;;3.70;;
79375;SDS011;68846;53.150;18.136;2023-04-24T14:38:11;5.70;;;3.20;;
79375;SDS011;68846;53.150;18.136;2023-04-24T14:40:37;4.60;;;3.70;;
79375;SDS011;68846;53.150;18.136;2023-04-24T14:43:04;5.20;;;3.80;;
79375;SDS011;68846;53.150;18.136;2023-04-24T14:45:30;6.80;;;3.80;;
79375;SDS011;68846;53.150;18.136;2023-04-24T14:47:57;6.20;;;3.80;;
79375;SDS011;68846;53.150;18.136;2023-04-24T14:50:23;5.90;;;4.10;;
79375;SDS011;68846;53.150;18.136;2023-04-24T14:52:54;5.80;;;3.60;;
79375;SDS011;68846;53.150;18.136;2023-04-24T14:55:25;5.10;;;3.80;;
79375;SDS011;68846;53.150;18.136;2023-04-24T14:57:52;6.00;;;3.90;;
79375;SDS011;68846;53.150;18.136;2023-04-24T15:00:20;9.40;;;4.20;;